createdAt,value
2023-03-05T00:00:55.096Z,65.57
2023-03-05T00:03:22.533Z,65.45
2023-03-05T00:05:49.809Z,65.29
2023-03-05T00:08:17.034Z,64.99
2023-03-05T00:10:44.250Z,64.50
2023-03-05T00:13:11.473Z,65.90
2023-03-05T00:15:42.262Z,65.95
2023-03-05T00:18:09.517Z,65.78
2023-03-05T00:20:36.774Z,65.99
2023-03-05T00:23:04.187Z,65.43
2023-03-05T00:25:31.502Z,65.20
2023-03-05T00:27:58.733Z,66.03
2023-03-05T00:30:25.980Z,65.53
2023-03-05T00:32:53.273Z,65.21
2023-03-05T00:35:20.616Z,66.25
2023-03-05T00:37:48.987Z,65.67
2023-03-05T00:40:16.609Z,65.83
2023-03-05T00:42:43.873Z,64.70
2023-03-05T00:45:11.587Z,64.57
2023-03-05T00:47:38.841Z,65.12
2023-03-05T00:50:06.836Z,65.02
2023-03-05T00:52:34.074Z,65.72
2023-03-05T00:55:01.335Z,66.17
2023-03-05T00:57:28.588Z,65.88
2023-03-05T00:59:55.809Z,66.64
2023-03-05T01:02:23.066Z,66.48
2023-03-05T01:04:51.213Z,65.52
2023-03-05T01:07:18.727Z,65.15
2023-03-05T01:09:46.004Z,66.06
2023-03-05T01:12:13.272Z,65.09
2023-03-05T01:14:40.523Z,64.83
2023-03-05T01:17:08.133Z,65.03
2023-03-05T01:19:35.450Z,65.32
2023-03-05T01:22:03.179Z,65.97
2023-03-05T01:24:31.461Z,65.76
2023-03-05T01:26:58.916Z,66.04
2023-03-05T01:29:26.528Z,65.82
2023-03-05T01:31:53.881Z,65.77
2023-03-05T01:34:21.446Z,65.75
2023-03-05T01:36:50.581Z,65.52
2023-03-05T01:39:17.899Z,65.72
2023-03-05T01:41:45.409Z,66.27
2023-03-05T01:44:31.105Z,66.74
2023-03-05T01:46:58.442Z,66.82
2023-03-05T01:49:27.821Z,66.54
2023-03-05T01:52:07.363Z,65.49
2023-03-05T01:54:39.359Z,65.96
2023-03-05T01:57:09.602Z,66.13
2023-03-05T01:59:38.039Z,65.95
2023-03-05T02:02:06.094Z,66.32
2023-03-05T02:04:41.656Z,66.94
2023-03-05T02:07:08.971Z,67.14
2023-03-05T02:09:40.856Z,67.74
2023-03-05T02:12:08.878Z,68.10
2023-03-05T02:14:37.414Z,67.62
2023-03-05T02:17:05.371Z,68.27
2023-03-05T02:19:47.292Z,68.67
2023-03-05T02:22:15.841Z,69.01
2023-03-05T02:24:43.162Z,68.98
2023-03-05T02:27:10.568Z,69.13
2023-03-05T02:29:37.985Z,69.76
2023-03-05T02:32:05.407Z,69.52
2023-03-05T02:34:32.739Z,69.12
2023-03-05T02:37:02.610Z,69.92
2023-03-05T02:39:31.617Z,70.72
2023-03-05T02:41:58.917Z,70.33
2023-03-05T02:44:27.182Z,70.33
2023-03-05T02:46:54.533Z,70.31
2023-03-05T02:49:21.849Z,70.69
2023-03-05T02:51:49.154Z,70.67
2023-03-05T02:54:17.925Z,71.01
2023-03-05T02:56:45.280Z,71.48
2023-03-05T02:59:12.644Z,71.82
2023-03-05T03:01:40.336Z,71.76
2023-03-05T03:04:07.856Z,72.66
2023-03-05T03:06:35.153Z,72.41
2023-03-05T03:09:02.417Z,72.31
2023-03-05T03:11:29.672Z,73.12
2023-03-05T03:13:56.921Z,72.82
2023-03-05T03:16:24.212Z,73.71
2023-03-05T03:18:51.576Z,73.58
2023-03-05T03:21:20.314Z,73.97
2023-03-05T03:23:47.622Z,73.80
2023-03-05T03:26:14.910Z,73.54
2023-03-05T03:28:42.168Z,73.58
2023-03-05T03:31:09.501Z,73.18
2023-03-05T03:33:36.858Z,72.53
2023-03-05T03:36:04.902Z,73.00
2023-03-05T03:38:33.444Z,72.24
2023-03-05T03:41:00.744Z,72.79
2023-03-05T03:43:27.999Z,73.45
2023-03-05T03:45:55.317Z,72.10
2023-03-05T03:48:25.568Z,71.88
2023-03-05T03:50:52.862Z,71.53
2023-03-05T03:53:20.168Z,72.73
2023-03-05T03:55:47.493Z,72.45
2023-03-05T03:58:14.808Z,71.70
2023-03-05T04:00:42.182Z,71.48
2023-03-05T04:03:09.427Z,71.40
2023-03-05T04:05:36.683Z,71.59
2023-03-05T04:08:04.218Z,71.88
2023-03-05T04:10:31.440Z,71.22
2023-03-05T04:12:58.731Z,70.27
2023-03-05T04:15:26.166Z,70.54
2023-03-05T04:17:53.474Z,70.21
2023-03-05T04:20:20.920Z,70.31
2023-03-05T04:22:48.322Z,69.95
2023-03-05T04:25:15.628Z,69.89
2023-03-05T04:27:42.871Z,69.47
2023-03-05T04:30:11.973Z,70.25
2023-03-05T04:32:39.296Z,70.23
2023-03-05T04:35:06.874Z,70.19
2023-03-05T04:37:34.156Z,69.14
2023-03-05T04:40:01.439Z,68.29
2023-03-05T04:42:28.793Z,68.41
2023-03-05T04:44:56.070Z,68.04
2023-03-05T04:47:23.434Z,67.63
2023-03-05T04:49:50.814Z,68.25
2023-03-05T04:52:18.122Z,68.33
2023-03-05T04:54:45.574Z,68.02
2023-03-05T04:57:12.859Z,66.93
2023-03-05T04:59:40.148Z,66.79
2023-03-05T05:02:07.476Z,66.69
2023-03-05T05:04:36.125Z,67.30
2023-03-05T05:07:03.655Z,66.51
2023-03-05T05:09:31.053Z,65.85
2023-03-05T05:11:58.331Z,65.17
2023-03-05T05:14:25.613Z,65.42
2023-03-05T05:16:52.898Z,64.74
2023-03-05T05:19:20.175Z,65.09
2023-03-05T05:21:47.517Z,65.01
2023-03-05T05:24:14.785Z,65.23
2023-03-05T05:26:42.041Z,65.63
2023-03-05T05:29:09.300Z,65.47
2023-03-05T05:31:36.859Z,65.57
2023-03-05T05:34:04.134Z,65.86
2023-03-05T05:36:31.436Z,66.17
2023-03-05T05:38:58.749Z,65.45
2023-03-05T05:41:26.020Z,66.31
2023-03-05T05:43:53.310Z,66.01
2023-03-05T05:46:20.928Z,66.03
2023-03-05T05:48:48.390Z,66.20
2023-03-05T05:51:18.041Z,66.02
2023-03-05T05:53:45.734Z,65.92
2023-03-05T05:56:13.400Z,66.12
2023-03-05T05:58:41.128Z,65.91
2023-03-05T06:01:15.322Z,65.65
2023-03-05T06:03:42.681Z,66.19
2023-03-05T06:06:11.619Z,65.59
2023-03-05T06:08:39.045Z,66.04
2023-03-05T06:11:06.689Z,66.21
2023-03-05T06:13:34.174Z,65.63
2023-03-05T06:16:03.060Z,65.54
2023-03-05T06:18:30.507Z,65.91
2023-03-05T06:20:58.894Z,65.70
2023-03-05T06:23:26.333Z,65.58
2023-03-05T06:25:53.780Z,65.58
2023-03-05T06:28:21.360Z,66.21
2023-03-05T06:30:48.722Z,65.61
2023-03-05T06:33:16.109Z,66.19
2023-03-05T06:35:43.367Z,65.89
2023-03-05T06:38:10.618Z,65.62
2023-03-05T06:40:39.329Z,65.76
2023-03-05T06:43:06.746Z,65.80
2023-03-05T06:45:34.149Z,65.58
2023-03-05T06:48:01.809Z,65.31
2023-03-05T06:50:29.133Z,65.41
2023-03-05T06:52:56.473Z,65.29
2023-03-05T06:55:23.785Z,64.90
2023-03-05T06:57:51.075Z,65.25
2023-03-05T07:00:18.567Z,64.72
2023-03-05T07:02:45.832Z,64.45
2023-03-05T07:05:13.240Z,65.25
2023-03-05T07:07:40.512Z,65.06
2023-03-05T07:10:08.720Z,64.64
2023-03-05T07:12:36.019Z,64.65
2023-03-05T07:15:03.534Z,64.60
2023-03-05T07:17:30.786Z,64.42
2023-03-05T07:19:58.036Z,64.62
2023-03-05T07:22:25.333Z,63.22
2023-03-05T07:24:52.674Z,63.36
2023-03-05T07:27:20.033Z,63.84
2023-03-05T07:29:47.276Z,62.95
2023-03-05T07:32:14.594Z,63.65
2023-03-05T07:34:42.880Z,63.17
2023-03-05T07:37:10.122Z,63.87
2023-03-05T07:39:37.388Z,63.35
2023-03-05T07:42:04.708Z,63.05
2023-03-05T07:44:48.806Z,63.08
2023-03-05T07:47:16.140Z,62.34
2023-03-05T07:49:43.466Z,62.25
2023-03-05T07:52:10.755Z,61.63
2023-03-05T07:54:40.874Z,61.57
2023-03-05T07:57:08.723Z,60.90
2023-03-05T07:59:36.081Z,60.66
2023-03-05T08:02:03.385Z,60.28
2023-03-05T08:04:31.981Z,59.45
2023-03-05T08:06:59.887Z,59.71
2023-03-05T08:09:28.093Z,59.29
2023-03-05T08:11:55.425Z,59.07
2023-03-05T08:14:22.789Z,59.68
2023-03-05T08:16:53.438Z,58.98
2023-03-05T08:19:21.333Z,58.08
2023-03-05T08:21:48.719Z,57.91
2023-03-05T08:24:16.093Z,57.68
2023-03-05T08:26:43.633Z,57.05
2023-03-05T08:29:11.240Z,57.22
2023-03-05T08:31:38.816Z,55.59
2023-03-05T08:34:06.204Z,54.60
2023-03-05T08:36:33.502Z,54.42
2023-03-05T08:39:00.975Z,53.77
2023-03-05T08:41:28.385Z,53.98
2023-03-05T08:43:55.721Z,53.66
2023-03-05T08:46:23.051Z,54.20
2023-03-05T08:48:50.407Z,53.94
2023-03-05T08:51:19.564Z,54.10
2023-03-05T08:53:47.200Z,53.95
2023-03-05T08:56:14.805Z,54.67
2023-03-05T08:58:42.850Z,54.43
2023-03-05T09:01:10.232Z,54.53
2023-03-05T09:03:37.981Z,53.98
2023-03-05T09:06:07.044Z,54.05
2023-03-05T09:08:34.768Z,53.07
2023-03-05T09:11:06.173Z,54.11
2023-03-05T09:13:33.641Z,53.86
2023-03-05T09:16:05.647Z,53.29
2023-03-05T09:18:33.216Z,52.54
2023-03-05T09:21:04.616Z,53.03
2023-03-05T09:23:31.954Z,53.25
2023-03-05T09:25:59.206Z,52.77
2023-03-05T09:28:26.522Z,52.62
2023-03-05T09:30:53.885Z,53.49
2023-03-05T09:33:21.151Z,53.08
2023-03-05T09:35:48.884Z,53.00
2023-03-05T09:38:16.212Z,52.74
2023-03-05T09:40:55.940Z,52.59
2023-03-05T09:43:30.987Z,53.30
2023-03-05T09:46:13.421Z,53.09
2023-03-05T09:48:44.515Z,52.74
2023-03-05T09:51:14.267Z,52.33
2023-03-05T09:53:46.280Z,53.31
2023-03-05T09:56:23.246Z,52.62
2023-03-05T09:58:56.237Z,52.35
2023-03-05T10:01:29.264Z,52.10
2023-03-05T10:04:16.643Z,51.63
2023-03-05T10:06:57.560Z,51.57
2023-03-05T10:09:50.090Z,50.86
2023-03-05T10:12:35.543Z,50.18
2023-03-05T10:15:03.280Z,50.65
2023-03-05T10:18:08.271Z,50.54
2023-03-05T10:20:46.698Z,50.97
2023-03-05T10:23:26.003Z,50.68
2023-03-05T10:26:17.467Z,50.57
2023-03-05T10:28:48.971Z,50.20
2023-03-05T10:31:31.670Z,49.82
2023-03-05T10:34:14.442Z,50.09
2023-03-05T10:37:04.373Z,49.93
2023-03-05T10:39:46.983Z,49.93
2023-03-05T10:42:39.027Z,49.18
2023-03-05T10:45:17.140Z,48.95
2023-03-05T10:47:46.026Z,48.83
2023-03-05T10:50:27.549Z,49.44
2023-03-05T10:53:27.131Z,49.72
2023-03-05T10:55:56.590Z,49.04
2023-03-05T10:58:24.868Z,49.79
2023-03-05T11:01:28.999Z,49.06
2023-03-05T11:04:06.461Z,48.96
2023-03-05T11:06:41.484Z,49.11
2023-03-05T11:09:21.907Z,48.03
2023-03-05T11:12:08.534Z,49.25
2023-03-05T11:14:38.681Z,49.28
2023-03-05T11:17:39.012Z,48.96
2023-03-05T11:20:27.922Z,48.88
2023-03-05T11:23:10.874Z,48.55
2023-03-05T11:25:56.421Z,48.97
2023-03-05T11:28:32.922Z,49.33
2023-03-05T11:31:07.709Z,48.38
2023-03-05T11:33:36.247Z,48.64
2023-03-05T11:36:13.087Z,48.70
2023-03-05T11:38:51.367Z,49.16
2023-03-05T11:41:21.216Z,49.86
2023-03-05T11:43:48.458Z,49.89
2023-03-05T11:46:16.618Z,50.16
2023-03-05T11:48:43.995Z,49.76
2023-03-05T11:51:26.988Z,50.17
2023-03-05T11:53:56.900Z,50.40
2023-03-05T11:56:28.049Z,50.83
2023-03-05T11:59:32.136Z,50.86
2023-03-05T12:01:59.533Z,50.51
2023-03-05T12:04:27.038Z,50.16
2023-03-05T12:07:03.526Z,50.31
2023-03-05T12:09:56.204Z,50.35
2023-03-05T12:12:47.586Z,50.52
2023-03-05T12:15:17.560Z,50.62
2023-03-05T12:18:03.340Z,50.73
2023-03-05T12:20:48.007Z,50.89
2023-03-05T12:23:20.321Z,51.88
2023-03-05T12:25:52.390Z,52.15
2023-03-05T12:28:35.913Z,51.97
2023-03-05T12:31:04.035Z,52.22
2023-03-05T12:33:34.172Z,51.99
2023-03-05T12:36:19.626Z,51.91
2023-03-05T12:38:54.148Z,51.58
2023-03-05T12:41:25.902Z,51.01
2023-03-05T12:44:06.790Z,51.12
2023-03-05T12:46:40.720Z,50.54
2023-03-05T12:49:20.310Z,50.26
2023-03-05T12:51:48.210Z,50.18
2023-03-05T12:54:29.469Z,50.61
2023-03-05T12:56:58.694Z,50.36
2023-03-05T12:59:49.088Z,50.00
2023-03-05T13:02:21.364Z,49.62
2023-03-05T13:04:48.704Z,50.13
2023-03-05T13:07:16.961Z,50.09
2023-03-05T13:09:57.887Z,51.10
2023-03-05T13:12:26.701Z,51.52
2023-03-05T13:15:07.839Z,51.64
2023-03-05T13:17:41.124Z,52.19
2023-03-05T13:20:27.010Z,52.45
2023-03-05T13:23:14.029Z,52.47
2023-03-05T13:25:41.376Z,52.50
2023-03-05T13:28:15.772Z,51.99
2023-03-05T13:30:45.578Z,51.90
2023-03-05T13:33:18.069Z,52.07
2023-03-05T13:35:46.290Z,51.74
2023-03-05T13:38:24.327Z,51.80
2023-03-05T13:41:05.454Z,51.95
2023-03-05T13:43:32.810Z,52.12
2023-03-05T13:46:00.256Z,51.69
2023-03-05T13:48:28.240Z,51.80
2023-03-05T13:50:56.929Z,51.94
2023-03-05T13:53:24.153Z,52.13
2023-03-05T13:55:59.710Z,50.95
2023-03-05T13:58:50.812Z,51.17
2023-03-05T14:01:50.298Z,51.12
2023-03-05T14:04:19.882Z,50.97
2023-03-05T14:07:03.834Z,50.70
2023-03-05T14:09:41.070Z,50.54
2023-03-05T14:12:32.901Z,50.32
2023-03-05T14:15:02.334Z,50.57
2023-03-05T14:17:35.347Z,50.53
2023-03-05T14:20:23.876Z,50.31
2023-03-05T14:22:53.194Z,50.09
2023-03-05T14:25:37.670Z,49.95
2023-03-05T14:28:17.130Z,49.71
2023-03-05T14:30:48.431Z,49.54
2023-03-05T14:33:17.860Z,49.41
2023-03-05T14:35:48.620Z,47.61
2023-03-05T14:38:23.549Z,48.03
2023-03-05T14:40:51.402Z,47.56
2023-03-05T14:43:18.660Z,46.63
2023-03-05T14:45:46.722Z,46.10
2023-03-05T14:48:15.493Z,45.08
2023-03-05T14:50:52.484Z,44.54
2023-03-05T14:53:25.879Z,44.67
2023-03-05T14:55:56.733Z,44.69
2023-03-05T14:58:26.094Z,44.77
2023-03-05T15:00:53.668Z,44.87
2023-03-05T15:03:21.472Z,44.19
2023-03-05T15:05:51.087Z,44.26
2023-03-05T15:08:25.883Z,44.24
2023-03-05T15:10:53.279Z,43.67
2023-03-05T15:13:20.805Z,43.95
2023-03-05T15:15:48.674Z,43.78
2023-03-05T15:18:17.493Z,43.28
2023-03-05T15:20:44.994Z,43.42
2023-03-05T15:23:13.012Z,43.67
2023-03-05T15:25:40.632Z,43.95
2023-03-05T15:28:07.927Z,44.05
2023-03-05T15:30:40.288Z,44.66
2023-03-05T15:33:09.609Z,44.76
2023-03-05T15:35:37.047Z,45.40
2023-03-05T15:38:04.561Z,45.97
2023-03-05T15:40:31.910Z,46.11
2023-03-05T15:42:59.488Z,46.05
2023-03-05T15:45:27.423Z,45.50
2023-03-05T15:47:54.687Z,45.85
2023-03-05T15:50:21.958Z,46.05
2023-03-05T15:52:49.307Z,46.48
2023-03-05T15:55:18.307Z,46.40
2023-03-05T15:57:47.151Z,47.05
2023-03-05T16:00:15.187Z,47.50
2023-03-05T16:02:42.455Z,47.17
2023-03-05T16:05:10.191Z,47.42
2023-03-05T16:07:38.759Z,47.48
2023-03-05T16:10:06.626Z,47.47
2023-03-05T16:12:40.739Z,46.98
2023-03-05T16:15:10.083Z,46.64
2023-03-05T16:17:37.397Z,46.79
2023-03-05T16:20:05.204Z,47.28
2023-03-05T16:22:32.613Z,47.32
2023-03-05T16:25:01.324Z,47.99
2023-03-05T16:27:29.040Z,47.83
2023-03-05T16:29:56.369Z,48.38
2023-03-05T16:32:24.098Z,47.80
2023-03-05T16:34:51.405Z,48.27
2023-03-05T16:37:20.121Z,48.07
2023-03-05T16:39:47.606Z,47.74
2023-03-05T16:42:15.041Z,47.06
2023-03-05T16:44:42.444Z,46.83
2023-03-05T16:47:12.177Z,45.86
2023-03-05T16:49:39.732Z,45.66
2023-03-05T16:52:18.394Z,46.04
2023-03-05T16:54:46.292Z,45.50
2023-03-05T16:57:13.543Z,45.61
2023-03-05T16:59:41.624Z,45.68
2023-03-05T17:02:08.962Z,46.29
2023-03-05T17:04:37.063Z,46.24
2023-03-05T17:07:05.529Z,46.08
2023-03-05T17:09:32.912Z,46.37
2023-03-05T17:12:00.294Z,46.37
2023-03-05T17:14:27.688Z,46.39
2023-03-05T17:16:54.960Z,46.12
2023-03-05T17:19:22.265Z,45.77
2023-03-05T17:21:51.199Z,45.22
2023-03-05T17:24:20.826Z,44.91
2023-03-05T17:26:50.164Z,44.45
2023-03-05T17:29:19.042Z,44.80
2023-03-05T17:31:46.994Z,44.25
2023-03-05T17:34:14.722Z,44.21
2023-03-05T17:36:45.575Z,43.72
2023-03-05T17:39:13.905Z,44.16
2023-03-05T17:41:43.332Z,44.19
2023-03-05T17:44:10.571Z,44.68
2023-03-05T17:46:37.795Z,44.17
2023-03-05T17:49:05.087Z,44.20
2023-03-05T17:51:32.332Z,44.60
2023-03-05T17:53:59.622Z,43.32
2023-03-05T17:56:26.990Z,44.08
2023-03-05T17:58:54.596Z,43.79
2023-03-05T18:01:29.429Z,43.49
2023-03-05T18:03:57.015Z,43.30
2023-03-05T18:06:24.521Z,43.31
2023-03-05T18:08:51.918Z,42.60
2023-03-05T18:11:19.219Z,43.06
2023-03-05T18:13:46.486Z,43.60
2023-03-05T18:16:16.907Z,43.14
2023-03-05T18:18:44.655Z,42.99
2023-03-05T18:21:11.911Z,43.52
2023-03-05T18:23:39.191Z,43.59
2023-03-05T18:26:06.478Z,43.37
2023-03-05T18:28:33.778Z,43.74
2023-03-05T18:31:01.276Z,43.80
2023-03-05T18:33:28.633Z,43.79
2023-03-05T18:35:56.463Z,43.68
2023-03-05T18:38:25.381Z,44.24
2023-03-05T18:40:53.370Z,44.01
2023-03-05T18:43:21.249Z,44.08
2023-03-05T18:45:49.593Z,43.73
2023-03-05T18:48:16.837Z,44.72
2023-03-05T18:50:44.070Z,44.56
2023-03-05T18:53:14.551Z,44.45
2023-03-05T18:55:42.858Z,44.67
2023-03-05T18:58:10.300Z,44.22
2023-03-05T19:00:37.569Z,44.15
2023-03-05T19:03:05.893Z,44.66
2023-03-05T19:05:33.349Z,44.99
2023-03-05T19:08:01.240Z,45.14
2023-03-05T19:10:28.551Z,44.78
2023-03-05T19:13:43.794Z,45.39
2023-03-05T19:16:13.557Z,45.95
2023-03-05T19:19:16.603Z,45.83
2023-03-05T19:21:48.205Z,45.46
2023-03-05T19:24:15.659Z,45.84
2023-03-05T19:26:43.401Z,45.73
2023-03-05T19:29:10.684Z,46.18
2023-03-05T19:31:38.096Z,45.69
2023-03-05T19:34:05.921Z,45.82
2023-03-05T19:36:34.429Z,46.51
2023-03-05T19:39:04.253Z,46.55
2023-03-05T19:41:31.619Z,45.91
2023-03-05T19:43:58.991Z,46.36
2023-03-05T19:46:26.317Z,46.67
2023-03-05T19:48:53.687Z,46.21
2023-03-05T19:51:22.110Z,46.61
2023-03-05T19:53:49.437Z,46.47
2023-03-05T19:56:16.836Z,46.44
2023-03-05T19:58:45.611Z,46.22
2023-03-05T20:01:18.021Z,45.86
2023-03-05T20:03:49.384Z,46.41
2023-03-05T20:06:16.890Z,46.10
2023-03-05T20:08:44.638Z,46.46
2023-03-05T20:11:13.098Z,46.94
2023-03-05T20:13:40.457Z,46.88
2023-03-05T20:16:21.812Z,46.55
2023-03-05T20:18:52.870Z,46.71
2023-03-05T20:21:23.220Z,46.77
2023-03-05T20:23:54.564Z,46.33
2023-03-05T20:26:22.281Z,45.84
2023-03-05T20:28:49.912Z,46.65
2023-03-05T20:31:20.762Z,46.00
2023-03-05T20:33:48.171Z,46.56
2023-03-05T20:36:15.533Z,46.17
2023-03-05T20:38:42.841Z,46.36
2023-03-05T20:41:11.758Z,46.60
2023-03-05T20:43:44.744Z,46.01
2023-03-05T20:46:17.394Z,46.13
2023-03-05T20:48:44.971Z,46.65
2023-03-05T20:51:18.648Z,46.66
2023-03-05T20:53:45.936Z,46.26
2023-03-05T20:56:13.290Z,46.20
2023-03-05T20:58:40.563Z,46.04
2023-03-05T21:01:07.994Z,46.19
2023-03-05T21:03:37.212Z,45.23
2023-03-05T21:06:04.820Z,45.36
2023-03-05T21:08:32.105Z,45.24
2023-03-05T21:10:59.545Z,45.80
2023-03-05T21:13:26.946Z,45.07
2023-03-05T21:15:54.198Z,45.41
2023-03-05T21:18:21.525Z,45.46
2023-03-05T21:20:48.867Z,45.76
2023-03-05T21:23:16.668Z,45.26
2023-03-05T21:25:43.996Z,45.56
2023-03-05T21:28:12.931Z,44.78
2023-03-05T21:30:43.558Z,45.14
2023-03-05T21:33:12.621Z,45.71
2023-03-05T21:35:40.018Z,45.59
2023-03-05T21:38:07.692Z,44.68
2023-03-05T21:40:35.900Z,45.25
2023-03-05T21:43:03.782Z,45.03
2023-03-05T21:45:31.283Z,44.77
2023-03-05T21:48:01.205Z,45.32
2023-03-05T21:50:28.525Z,45.58
2023-03-05T21:52:56.108Z,45.15
2023-03-05T21:56:22.081Z,45.84
2023-03-05T21:58:49.524Z,45.47
2023-03-05T22:01:18.463Z,46.22
2023-03-05T22:03:46.012Z,45.85
2023-03-05T22:06:13.863Z,45.67
2023-03-05T22:08:41.259Z,46.03
2023-03-05T22:11:11.325Z,46.23
2023-03-05T22:13:38.697Z,46.16
2023-03-05T22:16:06.269Z,46.76
2023-03-05T22:18:33.624Z,46.61
2023-03-05T22:21:01.002Z,46.63
2023-03-05T22:23:29.948Z,47.19
2023-03-05T22:26:01.275Z,47.04
2023-03-05T22:28:28.608Z,46.59
2023-03-05T22:30:56.020Z,46.56
2023-03-05T22:33:23.463Z,47.10
2023-03-05T22:35:50.950Z,47.25
2023-03-05T22:38:18.266Z,47.53
2023-03-05T22:40:47.108Z,46.73
2023-03-05T22:43:14.503Z,46.95
2023-03-05T22:45:41.799Z,47.28
2023-03-05T22:48:12.197Z,47.71
2023-03-05T22:50:39.948Z,47.61
2023-03-05T22:53:07.368Z,47.81
2023-03-05T22:55:34.606Z,47.66
2023-03-05T22:58:01.867Z,47.88
2023-03-05T23:00:29.113Z,47.70
2023-03-05T23:02:56.550Z,47.91
2023-03-05T23:05:23.926Z,48.08
2023-03-05T23:07:51.161Z,48.81
2023-03-05T23:10:20.255Z,50.40
2023-03-05T23:12:50.073Z,51.85
2023-03-05T23:15:31.514Z,52.47
2023-03-05T23:17:58.909Z,53.01
2023-03-05T23:20:31.133Z,53.72
2023-03-05T23:22:58.416Z,54.36
2023-03-05T23:25:27.809Z,54.85
2023-03-05T23:27:55.098Z,54.70
2023-03-05T23:30:23.155Z,54.68
2023-03-05T23:33:00.202Z,54.92
2023-03-05T23:35:28.498Z,54.37
2023-03-05T23:37:56.545Z,55.09
2023-03-05T23:40:25.768Z,55.12
2023-03-05T23:42:53.209Z,55.29
2023-03-05T23:45:21.044Z,54.83
2023-03-05T23:47:48.695Z,54.89
2023-03-05T23:50:18.028Z,55.41
2023-03-05T23:52:45.376Z,55.33
2023-03-05T23:55:23.387Z,55.53
2023-03-05T23:57:50.658Z,56.02
